sensor_id;sensor_type;location;lat;lon;timestamp;P1;durP1;ratioP1;P2;durP2;ratioP2
74777;SDS011;63298;53.164;8.610;2024-03-08T00:41:56;19.98;;;9.75;;
74777;SDS011;63298;53.164;8.610;2024-03-08T00:44:32;19.60;;;8.48;;
74777;SDS011;63298;53.164;8.610;2024-03-08T00:47:11;21.05;;;8.73;;
74777;SDS011;63298;53.164;8.610;2024-03-08T00:49:40;24.13;;;9.63;;
74777;SDS011;63298;53.164;8.610;2024-03-08T00:52:24;18.27;;;8.95;;
74777;SDS011;63298;53.164;8.610;2024-03-08T00:55:16;19.73;;;9.02;;
74777;SDS011;63298;53.164;8.610;2024-03-08T00:58:33;20.58;;;9.02;;
74777;SDS011;63298;53.164;8.610;2024-03-08T01:01:18;18.17;;;8.77;;
74777;SDS011;63298;53.164;8.610;2024-03-08T01:03:57;20.17;;;8.50;;
74777;SDS011;63298;53.164;8.610;2024-03-08T01:06:40;19.27;;;8.13;;
74777;SDS011;63298;53.164;8.610;2024-03-08T01:15:46;19.55;;;8.45;;
74777;SDS011;63298;53.164;8.610;2024-03-08T01:24:46;21.88;;;9.05;;
74777;SDS011;63298;53.164;8.610;2024-03-08T01:38:00;21.73;;;8.35;;
74777;SDS011;63298;53.164;8.610;2024-03-08T01:41:28;18.67;;;8.32;;
74777;SDS011;63298;53.164;8.610;2024-03-08T01:47:16;16.50;;;7.38;;
74777;SDS011;63298;53.164;8.610;2024-03-08T01:53:30;16.83;;;8.77;;
74777;SDS011;63298;53.164;8.610;2024-03-08T02:06:16;18.38;;;7.95;;
74777;SDS011;63298;53.164;8.610;2024-03-08T02:16:32;20.17;;;9.23;;
74777;SDS011;63298;53.164;8.610;2024-03-08T02:19:46;20.00;;;7.82;;
74777;SDS011;63298;53.164;8.610;2024-03-08T02:26:40;19.85;;;8.68;;
74777;SDS011;63298;53.164;8.610;2024-03-08T02:29:36;17.90;;;8.57;;
74777;SDS011;63298;53.164;8.610;2024-03-08T03:18:34;21.63;;;8.70;;
74777;SDS011;63298;53.164;8.610;2024-03-08T04:04:32;21.65;;;9.45;;
74777;SDS011;63298;53.164;8.610;2024-03-08T04:07:13;20.60;;;9.32;;
74777;SDS011;63298;53.164;8.610;2024-03-08T04:13:08;19.27;;;8.52;;
74777;SDS011;63298;53.164;8.610;2024-03-08T04:15:42;21.58;;;10.73;;
74777;SDS011;63298;53.164;8.610;2024-03-08T04:18:36;18.45;;;8.15;;
74777;SDS011;63298;53.164;8.610;2024-03-08T04:21:44;20.75;;;8.63;;
74777;SDS011;63298;53.164;8.610;2024-03-08T04:24:52;26.63;;;9.43;;
74777;SDS011;63298;53.164;8.610;2024-03-08T04:27:25;21.08;;;8.98;;
74777;SDS011;63298;53.164;8.610;2024-03-08T04:29:53;21.10;;;8.60;;
74777;SDS011;63298;53.164;8.610;2024-03-08T04:32:19;20.90;;;9.98;;
74777;SDS011;63298;53.164;8.610;2024-03-08T04:35:10;20.55;;;8.35;;
74777;SDS011;63298;53.164;8.610;2024-03-08T04:37:44;19.65;;;8.98;;
74777;SDS011;63298;53.164;8.610;2024-03-08T04:40:12;19.48;;;8.60;;
74777;SDS011;63298;53.164;8.610;2024-03-08T04:42:46;17.95;;;8.50;;
74777;SDS011;63298;53.164;8.610;2024-03-08T04:45:44;21.90;;;9.00;;
74777;SDS011;63298;53.164;8.610;2024-03-08T04:48:44;20.98;;;9.07;;
74777;SDS011;63298;53.164;8.610;2024-03-08T04:51:41;22.50;;;9.48;;
74777;SDS011;63298;53.164;8.610;2024-03-08T04:54:36;19.08;;;8.85;;
74777;SDS011;63298;53.164;8.610;2024-03-08T04:57:14;17.38;;;8.98;;
74777;SDS011;63298;53.164;8.610;2024-03-08T05:03:17;24.20;;;10.63;;
74777;SDS011;63298;53.164;8.610;2024-03-08T05:08:31;24.08;;;9.27;;
74777;SDS011;63298;53.164;8.610;2024-03-08T05:10:57;17.65;;;9.02;;
74777;SDS011;63298;53.164;8.610;2024-03-08T05:13:22;26.20;;;9.73;;
74777;SDS011;63298;53.164;8.610;2024-03-08T05:15:48;20.38;;;9.07;;
74777;SDS011;63298;53.164;8.610;2024-03-08T05:18:27;23.70;;;9.70;;
74777;SDS011;63298;53.164;8.610;2024-03-08T05:21:06;19.15;;;9.15;;
74777;SDS011;63298;53.164;8.610;2024-03-08T05:23:40;21.63;;;9.77;;
74777;SDS011;63298;53.164;8.610;2024-03-08T05:26:06;22.55;;;10.20;;
74777;SDS011;63298;53.164;8.610;2024-03-08T05:28:31;20.73;;;9.65;;
74777;SDS011;63298;53.164;8.610;2024-03-08T05:30:57;19.83;;;9.15;;
74777;SDS011;63298;53.164;8.610;2024-03-08T05:33:25;21.98;;;8.98;;
74777;SDS011;63298;53.164;8.610;2024-03-08T05:39:12;22.95;;;9.05;;
74777;SDS011;63298;53.164;8.610;2024-03-08T05:41:48;25.20;;;9.13;;
74777;SDS011;63298;53.164;8.610;2024-03-08T05:44:16;20.23;;;9.43;;
74777;SDS011;63298;53.164;8.610;2024-03-08T05:46:44;20.88;;;9.52;;
74777;SDS011;63298;53.164;8.610;2024-03-08T05:49:16;23.27;;;8.95;;
74777;SDS011;63298;53.164;8.610;2024-03-08T05:51:41;20.45;;;9.32;;
74777;SDS011;63298;53.164;8.610;2024-03-08T05:54:12;23.02;;;10.05;;
74777;SDS011;63298;53.164;8.610;2024-03-08T05:56:40;26.15;;;10.60;;
74777;SDS011;63298;53.164;8.610;2024-03-08T05:59:16;20.00;;;9.07;;
74777;SDS011;63298;53.164;8.610;2024-03-08T06:01:44;22.55;;;9.70;;
74777;SDS011;63298;53.164;8.610;2024-03-08T06:04:18;27.92;;;10.50;;
74777;SDS011;63298;53.164;8.610;2024-03-08T06:06:46;29.77;;;10.40;;
74777;SDS011;63298;53.164;8.610;2024-03-08T06:09:30;22.33;;;10.15;;
74777;SDS011;63298;53.164;8.610;2024-03-08T06:17:58;23.48;;;9.50;;
74777;SDS011;63298;53.164;8.610;2024-03-08T06:20:26;21.80;;;9.65;;
74777;SDS011;63298;53.164;8.610;2024-03-08T06:26:22;23.13;;;9.68;;
74777;SDS011;63298;53.164;8.610;2024-03-08T06:28:56;24.67;;;11.18;;
74777;SDS011;63298;53.164;8.610;2024-03-08T06:34:41;21.20;;;9.65;;
74777;SDS011;63298;53.164;8.610;2024-03-08T06:37:16;22.70;;;10.63;;
74777;SDS011;63298;53.164;8.610;2024-03-08T06:39:47;24.88;;;10.63;;
74777;SDS011;63298;53.164;8.610;2024-03-08T06:45:57;18.60;;;9.93;;
74777;SDS011;63298;53.164;8.610;2024-03-08T06:48:36;21.95;;;9.88;;
74777;SDS011;63298;53.164;8.610;2024-03-08T07:18:48;28.42;;;10.68;;
74777;SDS011;63298;53.164;8.610;2024-03-08T07:21:17;22.48;;;9.88;;
74777;SDS011;63298;53.164;8.610;2024-03-08T07:23:43;20.58;;;9.48;;
74777;SDS011;63298;53.164;8.610;2024-03-08T07:26:09;22.13;;;9.93;;
74777;SDS011;63298;53.164;8.610;2024-03-08T07:28:34;21.55;;;9.65;;
74777;SDS011;63298;53.164;8.610;2024-03-08T07:31:03;22.40;;;9.70;;
74777;SDS011;63298;53.164;8.610;2024-03-08T07:33:36;23.73;;;10.18;;
74777;SDS011;63298;53.164;8.610;2024-03-08T07:36:01;20.83;;;10.73;;
74777;SDS011;63298;53.164;8.610;2024-03-08T07:38:30;24.17;;;10.60;;
74777;SDS011;63298;53.164;8.610;2024-03-08T07:40:56;21.10;;;9.45;;
74777;SDS011;63298;53.164;8.610;2024-03-08T07:43:24;20.45;;;10.45;;
74777;SDS011;63298;53.164;8.610;2024-03-08T07:45:53;20.42;;;9.52;;
74777;SDS011;63298;53.164;8.610;2024-03-08T07:48:24;19.55;;;9.82;;
74777;SDS011;63298;53.164;8.610;2024-03-08T07:50:53;20.75;;;9.65;;
74777;SDS011;63298;53.164;8.610;2024-03-08T07:53:23;24.27;;;11.10;;
74777;SDS011;63298;53.164;8.610;2024-03-08T07:55:52;20.20;;;9.98;;
74777;SDS011;63298;53.164;8.610;2024-03-08T07:58:18;24.80;;;10.93;;
74777;SDS011;63298;53.164;8.610;2024-03-08T08:00:43;23.25;;;10.57;;
74777;SDS011;63298;53.164;8.610;2024-03-08T08:03:09;23.73;;;10.38;;
74777;SDS011;63298;53.164;8.610;2024-03-08T08:05:38;22.48;;;10.75;;
74777;SDS011;63298;53.164;8.610;2024-03-08T08:08:12;26.50;;;10.55;;
74777;SDS011;63298;53.164;8.610;2024-03-08T08:10:45;23.48;;;11.07;;
74777;SDS011;63298;53.164;8.610;2024-03-08T08:13:13;22.23;;;9.52;;
74777;SDS011;63298;53.164;8.610;2024-03-08T08:15:41;23.67;;;10.45;;
74777;SDS011;63298;53.164;8.610;2024-03-08T08:18:16;21.15;;;10.30;;
74777;SDS011;63298;53.164;8.610;2024-03-08T08:20:41;22.55;;;10.60;;
74777;SDS011;63298;53.164;8.610;2024-03-08T08:23:09;21.52;;;10.20;;
74777;SDS011;63298;53.164;8.610;2024-03-08T08:25:38;20.67;;;10.73;;
74777;SDS011;63298;53.164;8.610;2024-03-08T08:28:07;25.08;;;11.25;;
74777;SDS011;63298;53.164;8.610;2024-03-08T08:30:38;18.90;;;10.25;;
74777;SDS011;63298;53.164;8.610;2024-03-08T08:33:03;20.75;;;9.68;;
74777;SDS011;63298;53.164;8.610;2024-03-08T08:35:32;21.15;;;10.45;;
74777;SDS011;63298;53.164;8.610;2024-03-08T08:38:03;21.13;;;10.75;;
74777;SDS011;63298;53.164;8.610;2024-03-08T08:40:40;23.75;;;11.07;;
74777;SDS011;63298;53.164;8.610;2024-03-08T08:43:08;21.02;;;10.48;;
74777;SDS011;63298;53.164;8.610;2024-03-08T08:45:33;25.23;;;10.77;;
74777;SDS011;63298;53.164;8.610;2024-03-08T08:47:59;23.58;;;10.10;;
74777;SDS011;63298;53.164;8.610;2024-03-08T08:50:25;23.60;;;11.02;;
74777;SDS011;63298;53.164;8.610;2024-03-08T08:52:54;21.38;;;9.95;;
74777;SDS011;63298;53.164;8.610;2024-03-08T08:55:32;22.33;;;10.90;;
74777;SDS011;63298;53.164;8.610;2024-03-08T08:57:58;21.95;;;10.45;;
74777;SDS011;63298;53.164;8.610;2024-03-08T09:00:43;22.85;;;10.82;;
74777;SDS011;63298;53.164;8.610;2024-03-08T09:05:58;20.58;;;9.60;;
74777;SDS011;63298;53.164;8.610;2024-03-08T09:08:26;22.73;;;10.63;;
74777;SDS011;63298;53.164;8.610;2024-03-08T09:11:05;21.63;;;10.25;;
74777;SDS011;63298;53.164;8.610;2024-03-08T09:13:34;25.40;;;10.82;;
74777;SDS011;63298;53.164;8.610;2024-03-08T09:15:59;24.10;;;11.27;;
74777;SDS011;63298;53.164;8.610;2024-03-08T09:18:28;22.58;;;10.40;;
74777;SDS011;63298;53.164;8.610;2024-03-08T09:20:54;24.60;;;11.15;;
74777;SDS011;63298;53.164;8.610;2024-03-08T09:23:22;21.80;;;10.27;;
74777;SDS011;63298;53.164;8.610;2024-03-08T09:25:48;24.52;;;10.38;;
74777;SDS011;63298;53.164;8.610;2024-03-08T09:28:16;24.08;;;10.68;;
74777;SDS011;63298;53.164;8.610;2024-03-08T09:30:42;17.58;;;10.38;;
74777;SDS011;63298;53.164;8.610;2024-03-08T09:33:08;25.05;;;11.25;;
74777;SDS011;63298;53.164;8.610;2024-03-08T09:35:33;24.92;;;10.50;;
74777;SDS011;63298;53.164;8.610;2024-03-08T09:38:02;20.52;;;10.57;;
74777;SDS011;63298;53.164;8.610;2024-03-08T09:40:28;22.73;;;10.57;;
74777;SDS011;63298;53.164;8.610;2024-03-08T09:42:53;22.50;;;10.70;;
74777;SDS011;63298;53.164;8.610;2024-03-08T09:48:38;21.38;;;10.07;;
74777;SDS011;63298;53.164;8.610;2024-03-08T09:51:04;19.88;;;9.73;;
74777;SDS011;63298;53.164;8.610;2024-03-08T09:53:30;29.55;;;11.20;;
74777;SDS011;63298;53.164;8.610;2024-03-08T09:56:13;23.67;;;11.25;;
74777;SDS011;63298;53.164;8.610;2024-03-08T09:58:44;23.30;;;10.70;;
74777;SDS011;63298;53.164;8.610;2024-03-08T10:01:10;20.45;;;10.68;;
74777;SDS011;63298;53.164;8.610;2024-03-08T10:03:38;22.00;;;10.60;;
74777;SDS011;63298;53.164;8.610;2024-03-08T10:06:11;22.02;;;11.13;;
74777;SDS011;63298;53.164;8.610;2024-03-08T10:08:37;24.00;;;11.25;;
74777;SDS011;63298;53.164;8.610;2024-03-08T10:11:04;21.55;;;10.60;;
74777;SDS011;63298;53.164;8.610;2024-03-08T10:13:38;18.58;;;9.57;;
74777;SDS011;63298;53.164;8.610;2024-03-08T10:16:07;20.48;;;9.95;;
74777;SDS011;63298;53.164;8.610;2024-03-08T10:18:42;22.35;;;10.70;;
74777;SDS011;63298;53.164;8.610;2024-03-08T10:21:13;22.38;;;11.10;;
74777;SDS011;63298;53.164;8.610;2024-03-08T10:23:41;23.65;;;11.48;;
74777;SDS011;63298;53.164;8.610;2024-03-08T10:26:10;24.02;;;10.52;;
74777;SDS011;63298;53.164;8.610;2024-03-08T10:29:40;21.73;;;11.20;;
74777;SDS011;63298;53.164;8.610;2024-03-08T10:32:15;20.50;;;10.35;;
74777;SDS011;63298;53.164;8.610;2024-03-08T10:34:50;22.27;;;11.07;;
74777;SDS011;63298;53.164;8.610;2024-03-08T10:37:22;22.05;;;10.75;;
74777;SDS011;63298;53.164;8.610;2024-03-08T10:39:52;21.73;;;11.00;;
74777;SDS011;63298;53.164;8.610;2024-03-08T10:43:23;23.33;;;11.20;;
74777;SDS011;63298;53.164;8.610;2024-03-08T10:49:04;23.73;;;10.98;;
74777;SDS011;63298;53.164;8.610;2024-03-08T10:51:57;20.55;;;10.57;;
74777;SDS011;63298;53.164;8.610;2024-03-08T10:54:25;20.38;;;10.90;;
74777;SDS011;63298;53.164;8.610;2024-03-08T10:57:10;19.27;;;10.45;;
74777;SDS011;63298;53.164;8.610;2024-03-08T10:59:46;23.48;;;11.05;;
74777;SDS011;63298;53.164;8.610;2024-03-08T11:02:13;20.85;;;10.95;;
74777;SDS011;63298;53.164;8.610;2024-03-08T11:04:50;24.02;;;11.57;;
74777;SDS011;63298;53.164;8.610;2024-03-08T11:07:16;22.17;;;10.65;;
74777;SDS011;63298;53.164;8.610;2024-03-08T11:10:22;20.95;;;11.05;;
74777;SDS011;63298;53.164;8.610;2024-03-08T11:13:08;19.83;;;9.90;;
74777;SDS011;63298;53.164;8.610;2024-03-08T11:19:22;18.58;;;10.45;;
74777;SDS011;63298;53.164;8.610;2024-03-08T11:21:50;18.20;;;10.00;;
74777;SDS011;63298;53.164;8.610;2024-03-08T11:28:10;23.00;;;11.50;;
74777;SDS011;63298;53.164;8.610;2024-03-08T11:30:44;20.33;;;10.68;;
74777;SDS011;63298;53.164;8.610;2024-03-08T11:33:40;23.00;;;11.27;;
74777;SDS011;63298;53.164;8.610;2024-03-08T11:36:27;20.65;;;10.20;;
74777;SDS011;63298;53.164;8.610;2024-03-08T11:39:00;19.33;;;10.35;;
74777;SDS011;63298;53.164;8.610;2024-03-08T11:41:34;20.75;;;11.02;;
74777;SDS011;63298;53.164;8.610;2024-03-08T11:44:05;20.77;;;11.82;;
74777;SDS011;63298;53.164;8.610;2024-03-08T11:49:36;20.17;;;10.68;;
74777;SDS011;63298;53.164;8.610;2024-03-08T11:52:02;18.08;;;10.48;;
74777;SDS011;63298;53.164;8.610;2024-03-08T11:54:31;23.23;;;11.48;;
74777;SDS011;63298;53.164;8.610;2024-03-08T11:57:17;18.35;;;10.30;;
74777;SDS011;63298;53.164;8.610;2024-03-08T12:00:04;19.23;;;10.48;;
74777;SDS011;63298;53.164;8.610;2024-03-08T12:02:30;21.50;;;11.50;;
74777;SDS011;63298;53.164;8.610;2024-03-08T12:04:56;25.77;;;10.77;;
74777;SDS011;63298;53.164;8.610;2024-03-08T12:07:32;22.00;;;10.43;;
74777;SDS011;63298;53.164;8.610;2024-03-08T12:10:17;20.20;;;11.07;;
74777;SDS011;63298;53.164;8.610;2024-03-08T12:15:30;21.88;;;10.85;;
74777;SDS011;63298;53.164;8.610;2024-03-08T12:18:11;19.23;;;10.43;;
74777;SDS011;63298;53.164;8.610;2024-03-08T12:21:08;20.65;;;10.95;;
74777;SDS011;63298;53.164;8.610;2024-03-08T12:23:38;21.27;;;10.35;;
74777;SDS011;63298;53.164;8.610;2024-03-08T12:29:38;20.10;;;10.07;;
74777;SDS011;63298;53.164;8.610;2024-03-08T12:32:25;21.83;;;10.30;;
74777;SDS011;63298;53.164;8.610;2024-03-08T12:35:14;20.60;;;9.98;;
74777;SDS011;63298;53.164;8.610;2024-03-08T12:37:59;19.88;;;9.93;;
74777;SDS011;63298;53.164;8.610;2024-03-08T12:40:46;24.13;;;11.00;;
74777;SDS011;63298;53.164;8.610;2024-03-08T12:43:16;16.65;;;9.85;;
74777;SDS011;63298;53.164;8.610;2024-03-08T12:45:42;19.17;;;9.77;;
74777;SDS011;63298;53.164;8.610;2024-03-08T12:48:12;19.08;;;9.68;;
74777;SDS011;63298;53.164;8.610;2024-03-08T12:53:46;18.30;;;9.88;;
74777;SDS011;63298;53.164;8.610;2024-03-08T12:59:03;20.08;;;9.32;;
74777;SDS011;63298;53.164;8.610;2024-03-08T13:01:32;17.38;;;9.70;;
74777;SDS011;63298;53.164;8.610;2024-03-08T13:04:16;21.00;;;10.30;;
74777;SDS011;63298;53.164;8.610;2024-03-08T13:06:52;17.45;;;10.23;;
74777;SDS011;63298;53.164;8.610;2024-03-08T13:09:20;17.88;;;10.18;;
74777;SDS011;63298;53.164;8.610;2024-03-08T13:11:48;16.10;;;9.20;;
74777;SDS011;63298;53.164;8.610;2024-03-08T13:14:14;20.65;;;10.10;;
74777;SDS011;63298;53.164;8.610;2024-03-08T13:16:42;20.38;;;10.35;;
74777;SDS011;63298;53.164;8.610;2024-03-08T13:19:20;20.10;;;10.82;;
74777;SDS011;63298;53.164;8.610;2024-03-08T13:22:18;18.40;;;10.40;;
74777;SDS011;63298;53.164;8.610;2024-03-08T13:25:14;18.15;;;10.00;;
74777;SDS011;63298;53.164;8.610;2024-03-08T13:27:49;20.88;;;10.23;;
74777;SDS011;63298;53.164;8.610;2024-03-08T13:30:17;15.98;;;9.85;;
74777;SDS011;63298;53.164;8.610;2024-03-08T13:35:55;23.98;;;11.13;;
74777;SDS011;63298;53.164;8.610;2024-03-08T13:38:23;18.75;;;9.57;;
74777;SDS011;63298;53.164;8.610;2024-03-08T13:40:49;17.25;;;10.20;;
74777;SDS011;63298;53.164;8.610;2024-03-08T13:43:18;19.73;;;9.43;;
74777;SDS011;63298;53.164;8.610;2024-03-08T13:49:09;16.40;;;9.48;;
74777;SDS011;63298;53.164;8.610;2024-03-08T13:58:28;22.23;;;12.05;;
74777;SDS011;63298;53.164;8.610;2024-03-08T14:07:56;20.30;;;10.15;;
74777;SDS011;63298;53.164;8.610;2024-03-08T14:34:03;21.30;;;10.50;;
74777;SDS011;63298;53.164;8.610;2024-03-08T16:37:00;16.70;;;9.00;;
74777;SDS011;63298;53.164;8.610;2024-03-08T16:39:26;21.80;;;9.57;;
74777;SDS011;63298;53.164;8.610;2024-03-08T16:41:51;17.05;;;9.32;;
74777;SDS011;63298;53.164;8.610;2024-03-08T16:44:17;18.02;;;8.57;;
74777;SDS011;63298;53.164;8.610;2024-03-08T16:46:42;14.77;;;8.02;;
74777;SDS011;63298;53.164;8.610;2024-03-08T16:49:08;17.27;;;9.55;;
74777;SDS011;63298;53.164;8.610;2024-03-08T16:51:34;17.17;;;8.80;;
74777;SDS011;63298;53.164;8.610;2024-03-08T22:29:08;20.17;;;8.35;;
74777;SDS011;63298;53.164;8.610;2024-03-08T22:31:34;23.83;;;9.60;;
74777;SDS011;63298;53.164;8.610;2024-03-08T22:34:00;17.27;;;8.13;;
74777;SDS011;63298;53.164;8.610;2024-03-08T22:36:25;23.17;;;8.80;;
74777;SDS011;63298;53.164;8.610;2024-03-08T22:38:51;19.05;;;8.68;;
74777;SDS011;63298;53.164;8.610;2024-03-08T22:41:22;18.13;;;8.95;;
74777;SDS011;63298;53.164;8.610;2024-03-08T22:44:04;16.45;;;8.00;;
74777;SDS011;63298;53.164;8.610;2024-03-08T22:49:59;19.77;;;8.70;;
74777;SDS011;63298;53.164;8.610;2024-03-08T22:52:31;24.48;;;9.20;;
74777;SDS011;63298;53.164;8.610;2024-03-08T22:54:57;22.27;;;9.15;;
74777;SDS011;63298;53.164;8.610;2024-03-08T22:57:37;18.88;;;8.93;;
74777;SDS011;63298;53.164;8.610;2024-03-08T23:00:07;19.38;;;9.35;;
74777;SDS011;63298;53.164;8.610;2024-03-08T23:05:01;18.35;;;8.98;;
74777;SDS011;63298;53.164;8.610;2024-03-08T23:07:27;17.88;;;8.82;;
74777;SDS011;63298;53.164;8.610;2024-03-08T23:12:49;18.88;;;9.10;;
74777;SDS011;63298;53.164;8.610;2024-03-08T23:15:15;19.63;;;9.75;;
74777;SDS011;63298;53.164;8.610;2024-03-08T23:17:41;19.45;;;8.63;;
74777;SDS011;63298;53.164;8.610;2024-03-08T23:20:06;18.98;;;8.52;;
74777;SDS011;63298;53.164;8.610;2024-03-08T23:22:38;19.15;;;8.93;;
74777;SDS011;63298;53.164;8.610;2024-03-08T23:25:11;21.08;;;9.48;;
74777;SDS011;63298;53.164;8.610;2024-03-08T23:27:53;17.05;;;8.57;;
74777;SDS011;63298;53.164;8.610;2024-03-08T23:30:27;21.75;;;9.23;;
74777;SDS011;63298;53.164;8.610;2024-03-08T23:32:54;23.50;;;9.63;;
74777;SDS011;63298;53.164;8.610;2024-03-08T23:35:20;23.05;;;9.80;;
74777;SDS011;63298;53.164;8.610;2024-03-08T23:37:49;19.50;;;9.48;;
74777;SDS011;63298;53.164;8.610;2024-03-08T23:40:15;18.92;;;9.15;;
74777;SDS011;63298;53.164;8.610;2024-03-08T23:42:43;23.88;;;10.02;;
74777;SDS011;63298;53.164;8.610;2024-03-08T23:45:08;14.23;;;8.20;;
74777;SDS011;63298;53.164;8.610;2024-03-08T23:47:34;25.75;;;10.32;;
74777;SDS011;63298;53.164;8.610;2024-03-08T23:50:00;26.73;;;10.20;;
74777;SDS011;63298;53.164;8.610;2024-03-08T23:52:25;21.88;;;9.65;;
74777;SDS011;63298;53.164;8.610;2024-03-08T23:54:51;18.73;;;9.20;;
74777;SDS011;63298;53.164;8.610;2024-03-08T23:57:19;24.83;;;9.73;;
74777;SDS011;63298;53.164;8.610;2024-03-08T23:59:56;22.27;;;9.25;;
